Aeroporto :
LOGIN :

Iscrizione | Disclaimer

   EN    FR    IT 

 










Sommario :    VFR   VFR Marginale   IFR   IFR Intensivo   IFR Molto Intensivo
Visibilità : 
Base nubi : 
>= 8 km
>= 3000ft
5 / 8 km
1000 / 3000 ft
1500m / 5 km
500 / 1000 ft
800 / 1500m
200 / 500 ft
< 800m
< 200 ft
Simboli :   Temporali  Nebbia  Neve Forte  Precipitazioni Forti  Vento > 20 kt
SIGMETs :   Varie  Temporali  Ghiacco  Turbolenza  Onda orograficha  Ceneri Vulcaniche







- Altitudine del aeroporto : 56 ft
- Codice IATA : ILY
- Carte del aeroporto


EGPI - Islay

ULTIMO METAR :
  • 210320Z AUTO 14006KT 2000 BR NCD 09/08 Q1021

METARs OBSOLETI :
  • 210250Z AUTO VRB02KT 2400 BR NCD 09/08 Q1022
  • 210220Z AUTO 14006KT 110V180 2800 BR NCD 09/09 Q1022
  • 210150Z AUTO 14007KT 110V170 3100 BR NCD 09/08 Q1022
  • 210120Z AUTO 14008KT 120V180 3400 BR NCD 09/08 Q1023
  • 210050Z AUTO 14008KT 4400 BR NCD 09/08 Q1023

TAF TAF EGPI
Valido dal 21 a 03 ore il 21 a 12 ore UTC


210158Z 2103/2112 19005KT 4000 BR FEW030
TEMPO 2103/2107 6000
BECMG 2107/2110 9999 NSW
TEMPO 2107/2112 6000 RA BKN014
Nessun NOTAM noto per questo aeroporto.



MetMap, La meteo Aeronautica in un colpo d'occhio ! - Copyright ORBIFLY Dicembre 2007 - Disclaimer

ORBIFLY MET'MAP TEAM :

Programmazione e sviluppo : Alexandra Zaïnal
Concezione e sviluppo : Baudouin d'Aumeries
Co-Programmazione e sviluppo : Marc-Olivier Méhu
Supporto tecnico e logistico : Manuel Goepfert
Aiuto per la traduzione : Arnaldo La Scala

Contatto : metmap@orbifly.com




FONTI E CREDITI :

   NOAA